Time;durP1;ratioP1;P1;durP2;ratioP2;P2;SDS_P1;SDS_P2;PMS_P1;PMS_P2;Temp;Humidity;BMP_temperature;BMP_pressure;BME280_temperature;BME280_humidity;BME280_pressure;Samples;Min_cycle;Max_cycle;Signal;HPM_P1;HPM_P2
2020/12/04 00:00:34;;;;;;;2.80;1.80;;;24.00;50.30;;;;;;5042521;28;20028;-48
2020/12/04 00:03:01;;;;;;;4.28;2.53;;;24.10;50.40;;;;;;5044123;28;20133;-41
2020/12/04 00:05:28;;;;;;;5.90;2.45;;;24.10;50.30;;;;;;5041803;28;20041;-40
2020/12/04 00:07:55;;;;;;;3.97;2.17;;;24.20;50.40;;;;;;5042933;28;20351;-41
2020/12/04 00:10:22;;;;;;;4.65;2.08;;;24.30;50.50;;;;;;5039905;28;20025;-38
2020/12/04 00:12:49;;;;;;;4.32;2.15;;;24.30;50.10;;;;;;5037538;28;20067;-42
2020/12/04 00:15:16;;;;;;;3.25;1.77;;;24.40;50.40;;;;;;5019233;28;20801;-43
2020/12/04 00:17:43;;;;;;;3.65;1.92;;;24.50;50.50;;;;;;5038384;28;20729;-43
2020/12/04 00:20:10;;;;;;;3.15;1.88;;;24.40;49.90;;;;;;5035741;28;20314;-44
2020/12/04 00:22:37;;;;;;;4.32;2.05;;;24.40;49.90;;;;;;5037495;28;20439;-43
2020/12/04 00:25:04;;;;;;;4.03;2.63;;;24.40;49.80;;;;;;5026706;28;20052;-43
2020/12/04 00:27:34;;;;;;;6.60;1.90;;;24.40;49.60;;;;;;5038538;28;20032;-44
2020/12/04 00:30:01;;;;;;;4.72;2.17;;;24.30;49.60;;;;;;5041299;28;20032;-42
2020/12/04 00:32:28;;;;;;;3.28;2.00;;;24.40;49.90;;;;;;5039064;28;20036;-41
2020/12/04 00:34:55;;;;;;;5.28;1.80;;;24.40;49.70;;;;;;5040448;28;20432;-41
2020/12/04 00:37:22;;;;;;;5.43;2.17;;;24.30;49.60;;;;;;5039158;28;20063;-42
2020/12/04 00:39:49;;;;;;;2.53;1.73;;;24.30;49.60;;;;;;5040272;28;20029;-45
2020/12/04 00:42:16;;;;;;;3.35;1.75;;;24.30;49.80;;;;;;5037030;28;20029;-42
2020/12/04 00:44:43;;;;;;;2.67;1.67;;;24.30;49.70;;;;;;5041089;28;20055;-42
2020/12/04 00:47:10;;;;;;;2.22;1.60;;;24.20;49.70;;;;;;5039548;28;20033;-44
2020/12/04 00:49:37;;;;;;;5.60;1.83;;;24.30;50.00;;;;;;5041113;28;20028;-43
2020/12/04 00:52:04;;;;;;;4.50;2.22;;;24.40;49.80;;;;;;5037783;28;20059;-42
2020/12/04 00:54:31;;;;;;;3.75;2.10;;;24.40;50.00;;;;;;5041688;28;20037;-41
2020/12/04 00:56:58;;;;;;;4.10;1.58;;;24.50;49.80;;;;;;5037710;28;20720;-48
2020/12/04 00:59:25;;;;;;;4.60;1.70;;;24.40;49.50;;;;;;5040011;28;20120;-43
2020/12/04 01:01:52;;;;;;;5.78;1.73;;;24.50;49.60;;;;;;5039234;28;20036;-46
2020/12/04 01:04:20;;;;;;;3.83;1.63;;;24.50;49.80;;;;;;5039624;28;20021;-44
2020/12/04 01:06:47;;;;;;;4.57;1.63;;;24.50;49.80;;;;;;5040588;28;20041;-42
2020/12/04 01:09:14;;;;;;;4.22;2.10;;;24.60;49.70;;;;;;5037024;28;20025;-45
2020/12/04 01:11:41;;;;;;;4.80;1.85;;;24.60;49.70;;;;;;5040922;28;20488;-41
2020/12/04 01:14:08;;;;;;;5.63;2.03;;;24.60;49.80;;;;;;5037262;28;20119;-45
2020/12/04 01:16:35;;;;;;;2.88;1.60;;;24.80;49.80;;;;;;5041469;28;20029;-43
2020/12/04 01:19:02;;;;;;;2.47;1.50;;;24.80;49.40;;;;;;5035477;28;20040;-44
2020/12/04 01:21:29;;;;;;;4.63;1.65;;;24.80;49.50;;;;;;5039185;28;20024;-43
2020/12/04 01:23:56;;;;;;;5.78;1.70;;;24.80;49.40;;;;;;5019240;28;20048;-45
2020/12/04 01:26:24;;;;;;;3.72;1.65;;;24.90;49.60;;;;;;5036146;28;20033;-48
2020/12/04 01:28:51;;;;;;;6.28;2.25;;;24.90;49.50;;;;;;5035614;28;20082;-42
2020/12/04 01:31:18;;;;;;;4.28;1.65;;;24.90;49.40;;;;;;5040060;28;20029;-42
2020/12/04 01:33:45;;;;;;;3.28;1.70;;;25.00;49.40;;;;;;5036710;28;20048;-43
2020/12/04 01:36:15;;;;;;;8.77;2.50;;;25.00;49.20;;;;;;5037349;28;20029;-43
2020/12/04 01:38:45;;;;;;;4.82;2.10;;;25.00;49.00;;;;;;5034527;28;20032;-45
2020/12/04 01:41:12;;;;;;;4.50;2.30;;;25.00;49.10;;;;;;5041041;28;20174;-47
2020/12/04 01:43:39;;;;;;;5.97;2.60;;;25.00;49.80;;;;;;5036204;28;20376;-44
2020/12/04 01:46:06;;;;;;;10.93;3.35;;;25.10;49.20;;;;;;5039299;28;20091;-43
2020/12/04 01:48:33;;;;;;;6.57;3.50;;;25.10;49.20;;;;;;5040073;28;20036;-50
2020/12/04 01:51:02;;;;;;;5.95;3.05;;;25.10;49.00;;;;;;5041871;28;20207;-44
2020/12/04 01:53:29;;;;;;;5.75;3.05;;;25.10;49.10;;;;;;5043808;28;20021;-44
2020/12/04 01:55:56;;;;;;;5.95;2.92;;;25.20;49.00;;;;;;5034626;28;20025;-46
2020/12/04 01:58:24;;;;;;;3.58;2.65;;;25.20;49.00;;;;;;5039229;28;20039;-46
2020/12/04 02:00:50;;;;;;;4.65;3.38;;;25.20;48.70;;;;;;5035072;28;20036;-48
2020/12/04 02:03:18;;;;;;;9.13;3.80;;;25.20;48.70;;;;;;5034424;28;20029;-46
2020/12/04 02:06:19;;;;;;;7.10;3.45;;;25.20;48.70;;;;;;5037395;28;20036;-50
2020/12/04 02:08:57;;;;;;;4.50;3.03;;;25.20;49.00;;;;;;5028424;28;20049;-46
2020/12/04 02:11:26;;;;;;;7.22;3.47;;;25.30;49.00;;;;;;5040446;28;20029;-49
2020/12/04 02:13:56;;;;;;;3.95;2.97;;;25.30;49.10;;;;;;5041129;28;20030;-49
2020/12/04 02:16:24;;;;;;;4.35;3.30;;;25.40;49.00;;;;;;5037373;28;20040;-41
2020/12/04 02:18:51;;;;;;;4.45;2.92;;;25.40;48.70;;;;;;5037494;28;20033;-46
2020/12/04 02:21:19;;;;;;;5.30;3.10;;;25.50;48.70;;;;;;5035275;28;20052;-43
2020/12/04 02:23:51;;;;;;;3.28;2.42;;;25.50;48.90;;;;;;5040609;28;20578;-42
2020/12/04 02:26:18;;;;;;;;;;;25.50;48.90;;;;;;5038448;28;20051;-45
2020/12/04 02:28:46;;;;;;;4.90;2.88;;;25.60;48.80;;;;;;5040552;28;20160;-44
2020/12/04 02:31:14;;;;;;;4.45;2.88;;;25.60;48.80;;;;;;5034353;28;20045;-51
2020/12/04 02:33:42;;;;;;;5.22;2.58;;;25.60;49.10;;;;;;5036642;28;20025;-39
2020/12/04 02:36:10;;;;;;;4.13;2.60;;;25.60;48.80;;;;;;5035441;28;20044;-40
2020/12/04 02:38:37;;;;;;;5.40;3.00;;;25.70;48.90;;;;;;5035085;28;20421;-46
2020/12/04 02:41:07;;;;;;;3.72;2.63;;;25.70;48.80;;;;;;5036373;28;20029;-44
2020/12/04 02:43:34;;;;;;;2.80;2.22;;;25.70;48.90;;;;;;5040949;28;20068;-43
2020/12/04 02:46:01;;;;;;;5.07;3.03;;;25.80;49.00;;;;;;5036313;28;20041;-44
2020/12/04 02:48:28;;;;;;;3.40;2.25;;;25.80;48.70;;;;;;5041112;28;20025;-42
2020/12/04 02:50:56;;;;;;;4.68;2.53;;;25.80;48.60;;;;;;5023113;28;20123;-43
2020/12/04 02:53:23;;;;;;;4.25;2.58;;;25.80;48.70;;;;;;5037088;28;20033;-42
2020/12/04 02:55:50;;;;;;;3.50;2.33;;;25.80;48.90;;;;;;5041846;28;20218;-42
2020/12/04 02:58:17;;;;;;;4.00;2.88;;;25.80;48.70;;;;;;5037645;28;20130;-42
2020/12/04 03:00:44;;;;;;;2.92;1.95;;;25.80;48.90;;;;;;5040686;28;20029;-42
2020/12/04 03:03:11;;;;;;;3.22;2.28;;;25.80;48.70;;;;;;5037056;28;20025;-43
2020/12/04 03:05:38;;;;;;;4.47;2.20;;;25.80;48.70;;;;;;5040214;28;20039;-42
2020/12/04 03:08:05;;;;;;;3.05;2.05;;;25.80;48.70;;;;;;5034750;28;20033;-43
2020/12/04 03:10:32;;;;;;;4.68;2.08;;;25.80;48.90;;;;;;5037229;28;20025;-42
2020/12/04 03:12:59;;;;;;;2.47;1.80;;;25.80;48.70;;;;;;5034666;28;20032;-42
2020/12/04 03:15:26;;;;;;;3.80;1.83;;;25.80;48.80;;;;;;5038096;28;20036;-42
2020/12/04 03:17:53;;;;;;;2.53;2.22;;;25.80;49.00;;;;;;5031657;28;20057;-41
2020/12/04 03:20:20;;;;;;;2.35;1.90;;;25.80;48.70;;;;;;5044142;28;20033;-42
2020/12/04 03:22:47;;;;;;;1.75;1.65;;;25.80;49.00;;;;;;5037374;28;20029;-42
2020/12/04 03:25:14;;;;;;;2.85;2.38;;;25.80;49.10;;;;;;5042281;28;20029;-40
2020/12/04 03:27:41;;;;;;;2.67;2.03;;;25.80;49.10;;;;;;5035735;28;20048;-40
2020/12/04 03:30:08;;;;;;;3.03;1.80;;;25.90;49.20;;;;;;5041781;28;20029;-40
2020/12/04 03:32:36;;;;;;;1.83;1.70;;;26.10;49.60;;;;;;5040021;28;20064;-40
2020/12/04 03:35:02;;;;;;;2.20;1.80;;;26.20;49.60;;;;;;5041345;28;20116;-42
2020/12/04 03:37:29;;;;;;;2.28;1.67;;;26.40;49.60;;;;;;5043087;28;20017;-40
2020/12/04 03:39:56;;;;;;;3.42;2.53;;;26.50;49.40;;;;;;5039682;28;20588;-45
2020/12/04 03:42:23;;;;;;;5.13;1.70;;;26.60;49.10;;;;;;5042347;28;20137;-45
2020/12/04 03:44:50;;;;;;;3.72;2.70;;;26.70;49.10;;;;;;5038388;28;20040;-45
2020/12/04 03:47:18;;;;;;;2.97;2.03;;;26.70;49.10;;;;;;5041977;28;20499;-42
2020/12/04 03:49:45;;;;;;;3.30;2.33;;;26.80;49.10;;;;;;5040461;28;20539;-46
2020/12/04 03:52:12;;;;;;;3.90;2.00;;;26.90;49.20;;;;;;5043724;28;20033;-47
2020/12/04 03:54:39;;;;;;;2.88;1.92;;;27.00;49.20;;;;;;5039822;28;20080;-44
2020/12/04 03:57:07;;;;;;;2.53;2.00;;;27.10;49.00;;;;;;5043361;28;20115;-43
2020/12/04 03:59:34;;;;;;;2.45;2.03;;;27.20;49.00;;;;;;5038044;28;20033;-44
2020/12/04 04:02:00;;;;;;;2.42;2.10;;;27.30;49.00;;;;;;5027069;28;20137;-43
2020/12/04 04:04:28;;;;;;;2.20;1.70;;;27.30;48.80;;;;;;5031440;28;20022;-44
2020/12/04 04:06:55;;;;;;;3.15;2.22;;;27.30;48.80;;;;;;5037298;28;20064;-42
2020/12/04 04:09:22;;;;;;;2.92;1.70;;;27.30;49.20;;;;;;5034329;28;20071;-43
2020/12/04 04:11:49;;;;;;;4.30;2.20;;;27.40;49.10;;;;;;5032797;28;20565;-42
2020/12/04 04:14:16;;;;;;;2.80;2.00;;;27.50;49.10;;;;;;5031519;28;20265;-40
2020/12/04 04:16:43;;;;;;;2.25;1.90;;;27.50;48.80;;;;;;5034839;28;20048;-43
2020/12/04 04:19:10;;;;;;;2.97;2.22;;;27.60;49.10;;;;;;5036030;28;20032;-44
2020/12/04 04:21:39;;;;;;;2.20;1.88;;;27.70;49.00;;;;;;5033326;28;20029;-41
2020/12/04 04:24:07;;;;;;;2.22;1.63;;;27.60;48.40;;;;;;5032849;28;20037;-49
2020/12/04 04:26:34;;;;;;;2.65;1.52;;;27.50;49.10;;;;;;5013972;28;20045;-49
2020/12/04 04:29:02;;;;;;;3.10;2.20;;;27.70;49.20;;;;;;5036278;28;20021;-42
2020/12/04 04:31:29;;;;;;;3.33;1.75;;;27.80;48.90;;;;;;5032767;28;20033;-41
2020/12/04 04:33:56;;;;;;;2.75;1.85;;;27.90;48.80;;;;;;5037186;28;20064;-44
2020/12/04 04:36:23;;;;;;;3.95;2.08;;;28.00;48.90;;;;;;5030357;28;20072;-43
2020/12/04 04:38:50;;;;;;;2.30;2.10;;;28.10;48.70;;;;;;5034076;28;20068;-44
2020/12/04 04:41:17;;;;;;;3.08;2.05;;;28.20;48.60;;;;;;5030955;28;20033;-46
2020/12/04 04:43:44;;;;;;;1.90;1.75;;;28.20;48.50;;;;;;5030920;28;20037;-44
2020/12/04 04:46:20;;;;;;;2.83;1.95;;;28.20;48.30;;;;;;5028690;28;20382;-43
2020/12/04 04:48:56;;;;;;;2.85;1.77;;;28.20;48.40;;;;;;5020584;28;20037;-43
2020/12/04 04:51:24;;;;;;;3.15;1.77;;;28.10;48.70;;;;;;5032799;28;20127;-48
2020/12/04 04:54:00;;;;;;;2.95;1.75;;;28.10;48.40;;;;;;5015540;28;20039;-46
2020/12/04 04:56:27;;;;;;;2.35;1.85;;;28.00;49.00;;;;;;5030351;28;20460;-47
2020/12/04 04:58:54;;;;;;;5.07;2.10;;;28.00;48.90;;;;;;5035700;28;20044;-53
2020/12/04 05:01:21;;;;;;;3.47;2.15;;;27.80;48.50;;;;;;5032996;28;20115;-49
2020/12/04 05:03:59;;;;;;;2.33;2.13;;;27.80;48.80;;;;;;5018955;28;20029;-51
2020/12/04 05:06:32;;;;;;;2.85;1.50;;;27.70;48.90;;;;;;5034973;28;20028;-51
2020/12/04 05:09:00;;;;;;;3.28;2.05;;;27.70;49.40;;;;;;5037657;28;20037;-45
2020/12/04 05:11:27;;;;;;;2.65;1.48;;;27.80;49.30;;;;;;5033953;28;20729;-49
2020/12/04 05:14:15;;;;;;;2.95;1.70;;;27.80;49.10;;;;;;5035253;28;20032;-41
2020/12/04 05:16:44;;;;;;;2.15;1.60;;;27.90;49.10;;;;;;5033836;28;20039;-47
2020/12/04 05:19:12;;;;;;;2.20;1.20;;;28.00;49.20;;;;;;5035662;28;20036;-45
2020/12/04 05:21:39;;;;;;;1.90;1.48;;;28.00;49.00;;;;;;5038236;28;20120;-51
2020/12/04 05:24:06;;;;;;;4.50;2.13;;;28.00;48.80;;;;;;5037118;28;20029;-45
2020/12/04 05:26:36;;;;;;;2.80;1.58;;;27.80;45.50;;;;;;5034842;28;20740;-55
2020/12/04 05:29:04;;;;;;;4.55;1.50;;;27.90;46.60;;;;;;5032745;28;20029;-53
2020/12/04 05:31:35;;;;;;;4.07;1.98;;;27.90;44.40;;;;;;5035253;28;20025;-55
2020/12/04 05:34:21;;;;;;;;;;;28.00;44.10;;;;;;5031912;28;20033;-56
2020/12/04 05:36:52;;;;;;;4.05;1.55;;;28.00;43.10;;;;;;5035527;28;19927;-50
2020/12/04 05:39:19;;;;;;;5.63;1.23;;;27.50;41.10;;;;;;5036220;28;20523;-51
2020/12/04 05:41:50;;;;;;;4.15;1.63;;;27.60;41.50;;;;;;5036477;28;20039;-48
2020/12/04 05:44:17;;;;;;;9.32;2.13;;;27.70;41.00;;;;;;5030827;28;20032;-48
2020/12/04 05:46:54;;;;;;;5.68;1.83;;;27.60;40.20;;;;;;5033794;28;20052;-58
2020/12/04 05:49:21;;;;;;;5.15;1.95;;;27.80;40.50;;;;;;5034369;28;20060;-56
2020/12/04 05:51:53;;;;;;;5.68;1.95;;;28.00;41.70;;;;;;5038207;28;20029;-57
2020/12/04 05:54:20;;;;;;;5.32;2.10;;;28.10;40.90;;;;;;5033408;28;20052;-49
2020/12/04 05:56:51;;;;;;;11.38;3.00;;;28.10;39.70;;;;;;5039102;28;20047;-47
2020/12/04 05:59:22;;;;;;;5.95;1.80;;;27.70;38.60;;;;;;5032306;28;20037;-51
2020/12/04 06:01:49;;;;;;;9.95;1.98;;;27.70;39.00;;;;;;5034593;28;20028;-45
2020/12/04 06:04:19;;;;;;;8.93;2.30;;;27.80;38.50;;;;;;5031487;28;20029;-46
2020/12/04 06:06:49;;;;;;;4.45;1.90;;;27.90;39.10;;;;;;5034624;28;20132;-49
2020/12/04 06:09:16;;;;;;;5.57;2.17;;;28.10;39.60;;;;;;5027546;28;20052;-48
2020/12/04 06:11:48;;;;;;;3.47;1.73;;;28.20;39.60;;;;;;5037604;28;20041;-50
2020/12/04 06:14:20;;;;;;;5.75;2.53;;;28.10;38.80;;;;;;5037777;28;20025;-57
2020/12/04 06:17:03;;;;;;;8.52;2.67;;;27.80;37.20;;;;;;5037436;28;20121;-45
2020/12/04 06:19:31;;;;;;;5.97;1.65;;;27.90;38.00;;;;;;5016984;28;20061;-56
2020/12/04 06:22:11;;;;;;;3.95;1.90;;;28.00;37.80;;;;;;5037589;28;20037;-59
2020/12/04 06:24:56;;;;;;;3.92;2.20;;;27.70;37.50;;;;;;5029536;28;21317;-59
2020/12/04 06:27:35;;;;;;;4.35;1.88;;;27.90;38.00;;;;;;5034920;28;20033;-56
2020/12/04 06:30:04;;;;;;;3.63;1.73;;;28.00;38.00;;;;;;5039558;28;20025;-55
2020/12/04 06:32:36;;;;;;;6.32;2.03;;;28.10;37.90;;;;;;5040703;28;20506;-50
2020/12/04 06:35:06;;;;;;;5.28;2.42;;;28.20;37.60;;;;;;5035992;28;20095;-57
2020/12/04 06:37:46;;;;;;;8.32;2.53;;;28.20;38.40;;;;;;5037453;28;20036;-51
2020/12/04 06:40:29;;;;;;;6.30;1.88;;;28.30;37.90;;;;;;5036593;28;20487;-58
2020/12/04 06:42:58;;;;;;;6.60;2.28;;;28.30;36.90;;;;;;5037872;28;20154;-53
2020/12/04 06:45:46;;;;;;;6.45;2.08;;;28.30;37.80;;;;;;5037630;28;20958;-50
2020/12/04 06:48:19;;;;;;;6.65;1.75;;;28.40;38.00;;;;;;5041041;28;20309;-47
2020/12/04 06:50:49;;;;;;;8.43;2.15;;;28.50;38.10;;;;;;5035258;28;20204;-48
2020/12/04 06:53:16;;;;;;;4.03;2.22;;;28.50;37.70;;;;;;5038690;28;20123;-50
2020/12/04 06:55:44;;;;;;;5.32;1.75;;;28.60;37.40;;;;;;5035107;28;20052;-43
2020/12/04 06:58:17;;;;;;;7.90;2.60;;;28.50;37.20;;;;;;5039210;28;20055;-45
2020/12/04 07:00:44;;;;;;;9.35;4.28;;;28.50;36.90;;;;;;5035956;28;20033;-42
2020/12/04 07:03:15;;;;;;;9.40;4.00;;;28.40;37.20;;;;;;5039671;28;20040;-49
2020/12/04 07:05:43;;;;;;;6.80;3.78;;;28.40;37.10;;;;;;5022452;28;20040;-44
2020/12/04 07:08:10;;;;;;;6.13;2.80;;;28.40;36.60;;;;;;5034335;28;20024;-44
2020/12/04 07:10:38;;;;;;;7.80;2.40;;;28.40;36.90;;;;;;5037636;28;20033;-42
2020/12/04 07:13:06;;;;;;;7.47;2.25;;;28.40;36.70;;;;;;5034086;28;20021;-45
2020/12/04 07:15:33;;;;;;;6.13;1.92;;;28.40;37.10;;;;;;5037664;28;20026;-42
2020/12/04 07:18:01;;;;;;;9.35;3.58;;;28.30;36.60;;;;;;5035669;28;20033;-47
2020/12/04 07:20:35;;;;;;;6.90;3.25;;;28.40;37.00;;;;;;5039150;28;20069;-51
2020/12/04 07:23:06;;;;;;;7.40;2.70;;;28.50;37.40;;;;;;5034385;28;21938;-45
2020/12/04 07:25:34;;;;;;;8.75;2.20;;;28.50;37.80;;;;;;5035209;28;20541;-44
2020/12/04 07:28:03;;;;;;;9.57;2.50;;;28.50;38.10;;;;;;5033957;28;20504;-46
2020/12/04 07:30:31;;;;;;;7.35;2.00;;;28.60;38.30;;;;;;5036426;28;20034;-46
2020/12/04 07:32:58;;;;;;;6.07;1.48;;;28.40;38.10;;;;;;5033502;28;20610;-48
2020/12/04 07:35:25;;;;;;;19.92;3.90;;;28.30;38.50;;;;;;5039253;28;20029;-43
2020/12/04 07:37:53;;;;;;;13.00;2.25;;;28.20;38.70;;;;;;5037013;28;20108;-44
2020/12/04 07:40:20;;;;;;;8.73;2.00;;;28.10;38.90;;;;;;5036531;28;20037;-44
2020/12/04 07:42:48;;;;;;;9.30;1.30;;;28.00;39.20;;;;;;5033215;28;20041;-44
2020/12/04 07:45:17;;;;;;;8.00;1.92;;;28.00;39.20;;;;;;5036582;28;20172;-47
2020/12/04 07:47:44;;;;;;;8.27;2.03;;;28.00;39.30;;;;;;5033313;28;20055;-43
2020/12/04 07:50:13;;;;;;;60.30;6.40;;;27.80;38.80;;;;;;5036551;28;20041;-49
2020/12/04 07:52:51;;;;;;;10.75;2.97;;;27.80;39.40;;;;;;5038465;28;20044;-44
2020/12/04 07:55:21;;;;;;;11.43;2.10;;;27.70;39.70;;;;;;5040766;28;20060;-45
2020/12/04 07:58:02;;;;;;;6.32;2.55;;;27.70;40.00;;;;;;5037257;28;20041;-47
2020/12/04 08:00:33;;;;;;;9.80;1.95;;;27.50;40.00;;;;;;5018310;28;20055;-48
2020/12/04 08:03:09;;;;;;;9.68;2.17;;;27.40;40.60;;;;;;5036354;28;20612;-49
2020/12/04 08:05:38;;;;;;;9.10;2.88;;;27.40;40.50;;;;;;5037386;28;20041;-45
2020/12/04 08:08:06;;;;;;;7.38;2.60;;;27.10;40.30;;;;;;5039527;28;20095;-48
2020/12/04 08:10:33;;;;;;;4.30;1.90;;;27.00;40.90;;;;;;5039378;28;20573;-46
2020/12/04 08:13:03;;;;;;;11.50;2.28;;;27.00;40.80;;;;;;5018604;28;20051;-49
2020/12/04 08:15:30;;;;;;;7.15;2.00;;;27.00;41.10;;;;;;5030946;28;20034;-45
2020/12/04 08:18:10;;;;;;;9.90;1.90;;;26.80;41.30;;;;;;5016934;28;21896;-49
2020/12/04 08:20:37;;;;;;;9.40;2.28;;;26.60;41.40;;;;;;5032807;28;20036;-47
2020/12/04 08:23:04;;;;;;;8.00;2.80;;;26.60;41.60;;;;;;5036316;28;20082;-47
2020/12/04 08:25:32;;;;;;;9.75;2.28;;;26.50;41.70;;;;;;5033652;28;20057;-49
2020/12/04 08:28:00;;;;;;;8.50;2.35;;;26.50;42.10;;;;;;5039226;28;20038;-46
2020/12/04 08:30:29;;;;;;;8.18;2.38;;;26.30;42.50;;;;;;5034154;28;20045;-47
2020/12/04 08:32:58;;;;;;;6.93;2.05;;;26.20;42.70;;;;;;5014561;28;20376;-47
2020/12/04 08:35:40;;;;;;;7.97;2.00;;;26.20;42.90;;;;;;5035603;28;20151;-46
2020/12/04 08:38:07;;;;;;;;;;;26.10;42.90;;;;;;5035711;28;20384;-48
2020/12/04 08:40:36;;;;;;;16.38;2.67;;;26.00;43.10;;;;;;5032044;28;19962;-46
2020/12/04 08:43:21;;;;;;;9.25;2.58;;;26.00;43.60;;;;;;5035929;28;20041;-51
2020/12/04 08:45:56;;;;;;;7.95;2.15;;;25.90;43.60;;;;;;5034768;28;20060;-44
2020/12/04 08:48:28;;;;;;;10.27;2.95;;;25.80;44.20;;;;;;5032985;28;20065;-49
2020/12/04 08:51:01;;;;;;;5.00;2.45;;;25.60;44.10;;;;;;5031754;28;20079;-45
2020/12/04 08:53:28;;;;;;;12.70;2.78;;;25.50;44.50;;;;;;5019127;28;20032;-44
2020/12/04 08:55:59;;;;;;;9.13;2.55;;;25.40;44.70;;;;;;5034210;28;20032;-47
2020/12/04 08:58:28;;;;;;;8.80;2.42;;;25.40;44.90;;;;;;5037993;28;20032;-45
2020/12/04 09:00:57;;;;;;;7.97;2.42;;;25.30;45.70;;;;;;5036423;28;20021;-52
2020/12/04 09:03:26;;;;;;;9.57;2.00;;;25.20;44.90;;;;;;5037305;28;20154;-48
2020/12/04 09:05:55;;;;;;;8.07;2.80;;;25.00;45.60;;;;;;5033595;28;20088;-48
2020/12/04 09:08:22;;;;;;;11.93;2.60;;;24.90;45.80;;;;;;5035773;28;20078;-48
2020/12/04 09:10:50;;;;;;;10.93;2.80;;;24.70;46.40;;;;;;5032487;28;20094;-49
2020/12/04 09:13:17;;;;;;;12.05;3.13;;;24.50;46.90;;;;;;5037355;28;20403;-47
2020/12/04 09:15:44;;;;;;;12.20;3.83;;;24.40;47.00;;;;;;5037898;28;20067;-48
2020/12/04 09:18:12;;;;;;;18.80;3.95;;;24.30;47.30;;;;;;5035181;28;20025;-45
2020/12/04 09:20:39;;;;;;;15.23;4.35;;;24.00;47.90;;;;;;5036218;28;20076;-49
2020/12/04 09:23:06;;;;;;;16.45;3.85;;;23.80;49.20;;;;;;5032578;28;20735;-44
2020/12/04 09:25:33;;;;;;;13.48;3.85;;;23.80;48.70;;;;;;5033914;28;20590;-46
2020/12/04 09:28:00;;;;;;;9.30;2.78;;;23.70;48.90;;;;;;5029216;28;20033;-56
2020/12/04 09:30:27;;;;;;;9.63;2.40;;;23.60;48.90;;;;;;5035013;28;20093;-59
2020/12/04 09:32:54;;;;;;;11.32;2.65;;;23.60;48.90;;;;;;5032623;28;20067;-55
2020/12/04 09:35:21;;;;;;;8.45;2.35;;;23.40;49.20;;;;;;5036140;28;20075;-50
2020/12/04 09:37:48;;;;;;;13.52;2.85;;;23.50;49.50;;;;;;5039895;28;20025;-51
2020/12/04 09:40:18;;;;;;;13.23;3.67;;;23.60;49.30;;;;;;5042616;28;20025;-52
2020/12/04 09:42:46;;;;;;;9.05;2.63;;;23.30;49.60;;;;;;5036539;28;20044;-52
2020/12/04 09:45:15;;;;;;;11.35;2.72;;;23.00;50.60;;;;;;5043264;28;20048;-51
2020/12/04 09:47:42;;;;;;;19.20;5.35;;;22.90;51.10;;;;;;5043637;28;20121;-54
2020/12/04 09:50:12;;;;;;;15.68;5.00;;;22.60;52.00;;;;;;5044933;28;20048;-54
2020/12/04 09:52:40;;;;;;;12.05;3.55;;;22.40;52.10;;;;;;5042920;28;20029;-50
2020/12/04 09:55:09;;;;;;;9.98;3.28;;;22.30;52.60;;;;;;5046871;28;20029;-52
2020/12/04 09:57:37;;;;;;;8.77;2.88;;;22.20;53.10;;;;;;5044169;28;20041;-55
2020/12/04 10:00:06;;;;;;;12.98;3.40;;;22.30;52.90;;;;;;5042472;28;20036;-52
2020/12/04 10:02:33;;;;;;;12.60;3.90;;;22.10;53.00;;;;;;5046657;28;20214;-52
2020/12/04 10:05:00;;;;;;;13.50;3.97;;;21.90;53.70;;;;;;5042299;28;20333;-55
2020/12/04 10:07:27;;;;;;;14.52;4.10;;;21.90;54.10;;;;;;5044573;28;20033;-54
2020/12/04 10:09:54;;;;;;;11.27;4.00;;;21.80;54.20;;;;;;5042480;28;20057;-52
2020/12/04 10:12:21;;;;;;;28.83;5.32;;;21.70;54.20;;;;;;5043370;28;20595;-53
2020/12/04 10:14:48;;;;;;;19.17;3.28;;;21.90;54.40;;;;;;5039474;28;20115;-54
2020/12/04 10:17:15;;;;;;;12.48;3.42;;;21.60;54.50;;;;;;5046287;28;20037;-50
2020/12/04 10:19:43;;;;;;;13.93;3.05;;;21.50;55.10;;;;;;5023976;28;20724;-50
2020/12/04 10:22:11;;;;;;;21.10;3.65;;;21.30;55.30;;;;;;5042313;28;20056;-50
2020/12/04 10:24:38;;;;;;;19.92;3.40;;;21.20;56.00;;;;;;5038224;28;20059;-53
2020/12/04 10:27:05;;;;;;;16.75;3.13;;;21.10;56.20;;;;;;5045520;28;20036;-47
2020/12/04 10:29:32;;;;;;;12.48;2.78;;;21.10;56.30;;;;;;5042414;28;20060;-50
2020/12/04 10:31:59;;;;;;;14.02;2.97;;;21.20;55.70;;;;;;5021804;28;20025;-54
2020/12/04 10:34:28;;;;;;;15.73;3.88;;;21.20;55.60;;;;;;5033443;28;20492;-48
2020/12/04 10:36:55;;;;;;;12.48;2.72;;;21.20;55.40;;;;;;5029199;28;20448;-47
2020/12/04 10:39:22;;;;;;;13.07;2.95;;;21.20;55.10;;;;;;5030871;28;20048;-51
2020/12/04 10:41:49;;;;;;;9.45;2.85;;;21.10;55.10;;;;;;5032640;28;20508;-50
2020/12/04 10:44:19;;;;;;;15.95;3.50;;;21.00;55.70;;;;;;5036374;28;20042;-52
2020/12/04 10:46:46;;;;;;;21.48;3.90;;;20.80;56.00;;;;;;5043277;28;20044;-49
2020/12/04 10:49:14;;;;;;;21.23;3.78;;;20.80;56.00;;;;;;5034619;28;20033;-47
2020/12/04 10:51:41;;;;;;;13.13;3.75;;;20.60;56.00;;;;;;5024503;28;20025;-50
2020/12/04 10:54:08;;;;;;;8.48;4.10;;;20.60;56.10;;;;;;5031110;28;20037;-48
2020/12/04 10:56:35;;;;;;;16.17;6.20;;;20.70;56.40;;;;;;5034889;28;20055;-50
2020/12/04 10:59:02;;;;;;;16.95;6.10;;;20.70;56.20;;;;;;5037959;28;20030;-47
2020/12/04 11:01:44;;;;;;;12.43;4.20;;;20.60;55.90;;;;;;5029511;28;20033;-52
2020/12/04 11:06:56;;;;;;;12.63;3.58;;;20.40;56.50;;;;;;5031261;28;20519;-50
2020/12/04 11:09:24;;;;;;;16.48;4.70;;;20.30;57.10;;;;;;5033762;28;20094;-49
2020/12/04 11:11:51;;;;;;;12.63;4.22;;;20.30;57.00;;;;;;5033235;28;20029;-49
2020/12/04 11:14:18;;;;;;;15.95;3.70;;;20.40;57.20;;;;;;5036867;28;20040;-48
2020/12/04 11:16:45;;;;;;;16.02;3.55;;;20.50;56.90;;;;;;5038321;28;20139;-50
2020/12/04 11:19:12;;;;;;;15.40;3.17;;;20.50;57.00;;;;;;5037056;28;20075;-51
2020/12/04 11:21:39;;;;;;;18.63;3.25;;;20.50;56.70;;;;;;5026477;28;20021;-52
2020/12/04 11:24:06;;;;;;;10.75;2.50;;;20.40;56.90;;;;;;5029167;28;20113;-50
2020/12/04 11:26:33;;;;;;;13.95;3.03;;;20.30;57.00;;;;;;5027088;28;20116;-50
2020/12/04 11:29:00;;;;;;;15.45;4.10;;;20.00;57.50;;;;;;5018193;28;20029;-51
2020/12/04 11:31:27;;;;;;;13.52;4.20;;;19.90;57.90;;;;;;5005110;28;20033;-49
2020/12/04 11:33:55;;;;;;;10.18;2.88;;;19.70;58.30;;;;;;5029469;28;20404;-47
2020/12/04 11:36:22;;;;;;;19.90;5.50;;;20.00;58.50;;;;;;5029069;28;20037;-52
2020/12/04 11:38:49;;;;;;;17.95;5.45;;;20.30;57.70;;;;;;5032165;28;20033;-49
2020/12/04 11:41:16;;;;;;;16.90;3.22;;;20.20;57.30;;;;;;5034955;28;20037;-47
2020/12/04 11:43:43;;;;;;;12.82;3.30;;;19.90;57.80;;;;;;5035191;28;20021;-48
2020/12/04 11:46:10;;;;;;;17.55;3.47;;;19.90;58.40;;;;;;5031789;28;20059;-48
2020/12/04 11:48:37;;;;;;;12.13;2.83;;;19.90;58.30;;;;;;5030365;28;20090;-47
2020/12/04 11:51:04;;;;;;;14.70;5.00;;;19.80;58.40;;;;;;5013023;28;20116;-51
2020/12/04 11:53:31;;;;;;;14.15;4.00;;;19.60;58.60;;;;;;5028098;28;20230;-47
2020/12/04 11:55:58;;;;;;;11.32;3.28;;;19.70;58.90;;;;;;5031061;28;20114;-51
2020/12/04 11:58:25;;;;;;;8.40;4.07;;;19.90;58.70;;;;;;5028652;28;20038;-47
2020/12/04 12:00:52;;;;;;;15.02;3.65;;;19.90;58.10;;;;;;5032309;28;20033;-48
2020/12/04 12:03:19;;;;;;;17.13;4.80;;;19.40;58.90;;;;;;5031377;28;20033;-49
2020/12/04 12:05:46;;;;;;;19.95;8.73;;;19.30;59.60;;;;;;5034973;28;20152;-47
2020/12/04 12:08:13;;;;;;;31.25;11.13;;;19.50;59.70;;;;;;5030144;28;20033;-47
2020/12/04 12:10:41;;;;;;;16.80;8.05;;;19.70;59.20;;;;;;5043740;28;20033;-49
2020/12/04 12:13:08;;;;;;;17.83;7.68;;;19.60;58.90;;;;;;5031832;28;20033;-51
2020/12/04 12:15:35;;;;;;;17.50;7.68;;;19.50;59.20;;;;;;5034678;28;20030;-48
2020/12/04 12:18:02;;;;;;;15.27;6.50;;;19.60;59.70;;;;;;5030152;28;20251;-48
2020/12/04 12:20:29;;;;;;;19.45;6.10;;;19.80;58.80;;;;;;5039040;28;20619;-48
2020/12/04 12:22:56;;;;;;;15.80;5.32;;;20.00;58.60;;;;;;5037650;28;20063;-47
2020/12/04 12:25:23;;;;;;;15.13;6.72;;;20.10;58.00;;;;;;5028918;28;20394;-50
2020/12/04 12:27:50;;;;;;;10.02;3.40;;;20.20;57.90;;;;;;5031850;28;20040;-48
2020/12/04 12:30:17;;;;;;;15.55;3.40;;;20.30;57.50;;;;;;5029708;28;20091;-49
2020/12/04 12:32:44;;;;;;;13.18;3.85;;;20.20;57.70;;;;;;5036185;28;20124;-50
2020/12/04 12:35:12;;;;;;;16.45;3.30;;;20.10;57.70;;;;;;5031031;28;20032;-50
2020/12/04 12:37:42;;;;;;;10.00;3.20;;;20.00;57.40;;;;;;5039145;28;20049;-50
2020/12/04 12:40:10;;;;;;;10.20;2.97;;;19.90;57.90;;;;;;5034756;28;20440;-50
2020/12/04 12:42:38;;;;;;;13.00;3.88;;;19.70;58.20;;;;;;5036704;28;20594;-48
2020/12/04 12:45:07;;;;;;;12.73;3.28;;;19.50;58.50;;;;;;5028342;28;20044;-50
2020/12/04 12:47:34;;;;;;;8.90;2.75;;;19.40;59.10;;;;;;5034553;28;20361;-42
2020/12/04 12:50:01;;;;;;;10.07;2.97;;;19.60;59.80;;;;;;5034602;28;20111;-42
2020/12/04 12:52:28;;;;;;;5.95;2.47;;;20.40;58.90;;;;;;5033571;28;20045;-42
2020/12/04 12:54:55;;;;;;;5.88;2.60;;;21.00;57.80;;;;;;5029866;28;20033;-42